Página principal
METAR-TAF:

METAR-TAF

Aeroportos :

Teerã, Irão

Aeroporto Internacional de Mehrabad

latitude: 35-41N, longitude: 051-21E, altura: 1204 m

Observação actual do tempo

O boletim foi feito há 42 minutos, às 01:00 UTC
Vento 6 kt de su-sudeste
Temperatura 11°C
Humidade 25%
Pressão 1022 hPa
Visibilidade 10 km ou mais
sem nuvens abaixo de 1500 metros e sem cumulonimbus

METAR: OIII 180100Z 15006KT CAVOK 11/M08 Q1022 A3018 NOSIG

Hora: 05:12 (01:42 UTC)

Previsão

O boletim foi feito há 2 horas e 2 minutos, às 23:40 UTC
Previsão válida de 18 às 00 UTC a 19 às 06 UTC
Vento 6 kt de sudeste
Visibilidade: 8000 m
Temporariamente
de 18 às 07 UTC a 18 às 15 UTC
Vento 16 kt de sudeste

TAF: OIII 172340Z 1800/1906 14003MPS 8000 NSC TEMPO 1807/1815 14008MPS

Observações e previsões do tempo de mais de 4000 aeroportos (mensagens METAR e TAF).

As estações disponíveis são os pontos amarelos e vermelhos sobre o mapa.

Mova o rato sobre o mapa para ver o nome da estação.

Depois clique no ponto para visualizar as observações e previsões meteorológicas.

Para alterar o mapa : clique nos botões verdes com uma cruz preta para aumentar o zoom; no botão verde com uma pitada de zoom; ou nas setas verdes para mapas adjacentes.


METAR-TAF: